Time;durP1;ratioP1;P1;durP2;ratioP2;P2;SDS_P1;SDS_P2;PMS_P1;PMS_P2;Temp;Humidity;BMP_temperature;BMP_pressure;BME280_temperature;BME280_humidity;BME280_pressure;Samples;Min_cycle;Max_cycle;Signal;HPM_P1;HPM_P2
2022/03/09 00:02:16;;;;;;;6.50;2.70;;;12.60;72.60;;;;;;5033730;28;20073;-65
2022/03/09 00:04:42;;;;;;;7.63;2.60;;;12.50;75.50;;;;;;5032429;28;20483;-65
2022/03/09 00:07:08;;;;;;;7.03;2.95;;;12.60;75.50;;;;;;5015615;28;20049;-65
2022/03/09 00:09:34;;;;;;;5.30;2.95;;;12.40;75.30;;;;;;5033200;28;20049;-65
2022/03/09 00:12:00;;;;;;;6.40;2.70;;;;;;;;;;5031645;28;20369;-65
2022/03/09 00:14:26;;;;;;;5.13;2.88;;;12.80;75.50;;;;;;5031474;28;20068;-64
2022/03/09 00:16:52;;;;;;;5.55;3.08;;;12.50;75.40;;;;;;5032217;28;20049;-64
2022/03/09 00:19:17;;;;;;;6.38;3.20;;;12.60;73.00;;;;;;5038210;28;20123;-65
2022/03/09 00:21:43;;;;;;;6.00;2.90;;;12.60;75.50;;;;;;5048613;28;20037;-65
2022/03/09 00:24:09;;;;;;;6.60;2.80;;;;;;;;;;5033272;28;20041;-64
2022/03/09 00:26:35;;;;;;;4.65;2.65;;;12.50;75.30;;;;;;5015020;28;20121;-64
2022/03/09 00:29:01;;;;;;;5.03;2.75;;;12.50;75.40;;;;;;5016420;28;20117;-64
2022/03/09 00:31:27;;;;;;;5.78;3.10;;;12.10;75.20;;;;;;5012724;28;20192;-65
2022/03/09 00:33:52;;;;;;;5.97;2.90;;;12.50;75.50;;;;;;5014275;28;20471;-64
2022/03/09 00:36:18;;;;;;;5.05;2.70;;;12.60;75.50;;;;;;5012448;28;20056;-66
2022/03/09 00:38:44;;;;;;;5.43;2.85;;;12.40;75.90;;;;;;5013967;28;20050;-65
2022/03/09 00:41:10;;;;;;;6.47;3.10;;;12.30;75.40;;;;;;5028740;28;20112;-64
2022/03/09 00:43:36;;;;;;;5.10;3.00;;;12.30;75.40;;;;;;5013792;28;20125;-64
2022/03/09 00:46:02;;;;;;;4.97;2.70;;;12.30;75.50;;;;;;5029514;28;20104;-65
2022/03/09 00:48:29;;;;;;;5.40;3.22;;;;;;;;;;5033566;28;20045;-62
2022/03/09 00:50:54;;;;;;;5.63;3.08;;;12.40;72.90;;;;;;5016042;28;20077;-62
2022/03/09 00:53:20;;;;;;;5.40;3.15;;;;;;;;;;5032174;28;20511;-62
2022/03/09 00:55:47;;;;;;;5.57;3.10;;;;;;;;;;5033493;28;20132;-62
2022/03/09 00:58:13;;;;;;;5.32;2.75;;;;;;;;;;5033150;28;20038;-63
2022/03/09 01:00:38;;;;;;;5.97;3.38;;;12.10;75.50;;;;;;5033445;28;20053;-63
2022/03/09 01:03:05;;;;;;;6.05;2.90;;;;;;;;;;5015682;28;20042;-62
2022/03/09 01:05:30;;;;;;;5.38;3.03;;;12.30;75.40;;;;;;5013664;28;20116;-63
2022/03/09 01:07:56;;;;;;;6.38;2.90;;;12.40;73.00;;;;;;5028976;28;20050;-62
2022/03/09 01:10:22;;;;;;;5.38;3.10;;;12.40;75.40;;;;;;5012074;28;20496;-62
2022/03/09 01:12:48;;;;;;;5.82;3.00;;;12.30;75.40;;;;;;5013333;28;20046;-62
2022/03/09 01:15:14;;;;;;;5.65;3.10;;;12.30;72.70;;;;;;5011774;28;20056;-62
2022/03/09 01:17:39;;;;;;;6.45;3.33;;;12.20;75.60;;;;;;5013314;28;20046;-62
2022/03/09 01:20:06;;;;;;;5.63;2.80;;;12.30;72.80;;;;;;5029809;28;20084;-62
2022/03/09 01:22:32;;;;;;;6.30;2.90;;;12.20;75.20;;;;;;5033211;28;20049;-62
2022/03/09 01:24:58;;;;;;;8.52;3.25;;;12.20;75.30;;;;;;5031655;28;20065;-62
2022/03/09 01:27:23;;;;;;;6.75;3.30;;;12.20;75.20;;;;;;5032743;28;20084;-62
2022/03/09 01:29:49;;;;;;;6.45;3.30;;;12.00;75.10;;;;;;5033139;28;20518;-62
2022/03/09 01:32:15;;;;;;;6.38;3.28;;;12.20;75.30;;;;;;5033159;28;20422;-62
2022/03/09 01:34:41;;;;;;;7.20;3.05;;;12.10;75.20;;;;;;5031659;28;20068;-62
2022/03/09 01:37:06;;;;;;;5.60;3.20;;;12.00;75.10;;;;;;5014889;28;20607;-63
2022/03/09 01:39:32;;;;;;;5.72;2.97;;;12.30;75.40;;;;;;5033148;28;20049;-63
2022/03/09 01:41:58;;;;;;;6.30;3.10;;;;;;;;;;5031808;28;20050;-63
2022/03/09 01:44:24;;;;;;;7.38;3.15;;;12.20;75.20;;;;;;5032929;28;20073;-62
2022/03/09 01:46:52;;;;;;;5.78;3.30;;;11.70;75.00;;;;;;5031269;28;20084;-62
2022/03/09 01:49:18;;;;;;;6.07;3.25;;;;;;;;;;5032740;28;20510;-61
2022/03/09 01:51:46;;;;;;;5.93;2.78;;;12.00;72.70;;;;;;5033791;28;20081;-62
2022/03/09 01:54:12;;;;;;;6.65;3.10;;;11.90;75.40;;;;;;5016540;28;20046;-62
2022/03/09 01:56:38;;;;;;;5.43;3.20;;;12.00;75.40;;;;;;5015208;28;20058;-63
2022/03/09 01:59:04;;;;;;;5.95;3.22;;;12.00;75.20;;;;;;5015130;28;20129;-64
2022/03/09 02:01:30;;;;;;;5.63;3.03;;;12.20;75.40;;;;;;5032466;28;20053;-64
2022/03/09 02:03:57;;;;;;;6.75;3.22;;;12.10;72.90;;;;;;5016489;28;20404;-64
2022/03/09 02:06:23;;;;;;;5.38;3.00;;;12.00;75.30;;;;;;5015150;28;20041;-62
2022/03/09 02:11:33;;;;;;;6.00;3.03;;;12.20;75.40;;;;;;5014975;28;20088;-62
2022/03/09 02:13:59;;;;;;;6.40;3.58;;;12.20;72.80;;;;;;5031530;28;20069;-62
2022/03/09 02:16:25;;;;;;;6.22;3.10;;;11.90;75.10;;;;;;5014855;28;20080;-62
2022/03/09 02:18:51;;;;;;;5.38;3.10;;;12.20;75.40;;;;;;5016754;28;20136;-61
2022/03/09 02:21:17;;;;;;;6.78;3.42;;;12.20;72.80;;;;;;5016362;28;20510;-61
2022/03/09 02:23:43;;;;;;;6.15;3.17;;;;;;;;;;5031330;28;20045;-61
2022/03/09 02:26:08;;;;;;;6.65;3.22;;;12.00;75.20;;;;;;5023303;28;20045;-61
2022/03/09 02:28:38;;;;;;;6.43;3.00;;;;;;;;;;5035977;28;20048;-62
2022/03/09 02:31:04;;;;;;;7.05;3.30;;;12.00;75.50;;;;;;5034422;28;20056;-61
2022/03/09 02:33:30;;;;;;;5.88;3.35;;;11.90;75.30;;;;;;5035895;28;20046;-61
2022/03/09 02:35:56;;;;;;;7.10;3.35;;;12.00;75.20;;;;;;5050983;28;20499;-61
2022/03/09 02:38:22;;;;;;;7.60;3.05;;;;;;;;;;5034035;28;20127;-61
2022/03/09 02:40:48;;;;;;;5.97;3.35;;;11.90;75.30;;;;;;5030774;28;20053;-61
2022/03/09 02:43:13;;;;;;;5.07;2.97;;;12.20;75.50;;;;;;5016460;28;20038;-61
2022/03/09 02:45:39;;;;;;;6.68;3.40;;;11.90;74.40;;;;;;5015667;28;20190;-61
2022/03/09 02:48:05;;;;;;;6.70;3.40;;;;;;;;;;5015836;28;20050;-62
2022/03/09 02:50:31;;;;;;;7.72;3.38;;;11.50;75.20;;;;;;5014233;28;20042;-62
2022/03/09 02:52:57;;;;;;;6.43;3.22;;;11.90;75.30;;;;;;5015746;28;20053;-61
2022/03/09 02:55:23;;;;;;;5.85;3.40;;;11.70;75.20;;;;;;5014081;28;20049;-61
2022/03/09 02:57:48;;;;;;;6.78;2.90;;;11.80;75.20;;;;;;5014139;28;20123;-61
2022/03/09 03:00:14;;;;;;;5.95;3.70;;;11.80;75.40;;;;;;5014620;28;20053;-61
2022/03/09 03:02:40;;;;;;;7.35;3.47;;;11.80;72.70;;;;;;5013616;28;20073;-61
2022/03/09 03:05:06;;;;;;;6.70;3.67;;;11.60;75.00;;;;;;5014540;28;20073;-61
2022/03/09 03:07:33;;;;;;;6.03;3.53;;;;;;;;;;5013840;28;20057;-61
2022/03/09 03:09:58;;;;;;;7.97;3.70;;;11.80;72.60;;;;;;5015365;28;20439;-61
2022/03/09 03:12:24;;;;;;;6.30;3.40;;;12.00;75.30;;;;;;5015040;28;20038;-61
2022/03/09 03:14:50;;;;;;;9.57;3.80;;;11.50;75.30;;;;;;5013684;28;20042;-61
2022/03/09 03:17:15;;;;;;;7.10;3.63;;;11.70;75.10;;;;;;5015457;28;20116;-61
2022/03/09 03:19:41;;;;;;;6.65;3.60;;;11.80;75.20;;;;;;5015753;28;20128;-61
2022/03/09 03:22:07;;;;;;;5.35;3.25;;;;;;;;;;5015181;28;20472;-61
2022/03/09 03:24:33;;;;;;;6.72;3.88;;;11.60;75.30;;;;;;5014891;28;20046;-61
2022/03/09 03:26:59;;;;;;;5.95;3.60;;;11.60;75.40;;;;;;5028199;28;20479;-61
2022/03/09 03:29:24;;;;;;;7.57;3.65;;;11.90;75.30;;;;;;5033486;28;20064;-61
2022/03/09 03:31:50;;;;;;;7.60;3.55;;;11.60;75.10;;;;;;5017273;28;20495;-61
2022/03/09 03:34:16;;;;;;;5.85;3.40;;;11.80;75.60;;;;;;5031971;28;20131;-62
2022/03/09 03:36:42;;;;;;;5.80;3.17;;;11.60;75.20;;;;;;5013289;28;20050;-62
2022/03/09 03:39:08;;;;;;;6.80;3.75;;;11.50;75.30;;;;;;5013259;28;20115;-61
2022/03/09 03:41:34;;;;;;;6.70;3.90;;;11.60;75.40;;;;;;5013493;28;20115;-61
2022/03/09 03:44:00;;;;;;;6.95;3.90;;;11.70;75.20;;;;;;5030941;28;20045;-62
2022/03/09 03:46:26;;;;;;;6.32;3.40;;;;;;;;;;5032696;28;20045;-61
2022/03/09 03:48:51;;;;;;;6.85;3.67;;;11.60;75.10;;;;;;5034654;28;20410;-61
2022/03/09 03:51:17;;;;;;;7.10;4.03;;;11.60;75.10;;;;;;5030995;28;20053;-61
2022/03/09 03:53:43;;;;;;;6.22;3.25;;;11.60;75.30;;;;;;5014607;28;20054;-63
2022/03/09 03:56:09;;;;;;;6.15;3.38;;;;;;;;;;5014584;28;20081;-61
2022/03/09 03:58:35;;;;;;;7.72;3.63;;;11.60;75.20;;;;;;5013023;28;20124;-61
2022/03/09 04:01:01;;;;;;;7.50;3.83;;;;;;;;;;5014496;28;20141;-61
2022/03/09 04:03:27;;;;;;;6.32;3.80;;;11.60;75.20;;;;;;5013244;28;20459;-61
2022/03/09 04:05:52;;;;;;;7.05;4.18;;;11.80;72.70;;;;;;5014109;28;20081;-61
2022/03/09 04:08:18;;;;;;;6.97;3.67;;;11.60;75.10;;;;;;5030068;28;20108;-62
2022/03/09 04:10:44;;;;;;;9.85;4.57;;;11.30;72.50;;;;;;5012855;28;20470;-61
2022/03/09 04:13:09;;;;;;;7.13;3.75;;;11.70;75.30;;;;;;5012822;28;20050;-61
2022/03/09 04:15:35;;;;;;;6.85;3.53;;;11.50;75.20;;;;;;5013427;28;20049;-62
2022/03/09 04:18:01;;;;;;;7.75;4.05;;;11.70;72.70;;;;;;5014246;28;20049;-61
2022/03/09 04:20:26;;;;;;;7.75;4.00;;;11.50;75.10;;;;;;5012968;28;20543;-61
2022/03/09 04:22:52;;;;;;;7.30;3.65;;;11.40;75.40;;;;;;5014462;28;20054;-61
2022/03/09 04:25:18;;;;;;;7.63;3.85;;;11.50;72.30;;;;;;5015288;28;20041;-62
2022/03/09 04:27:44;;;;;;;9.10;3.80;;;;;;;;;;5032315;28;20054;-62
2022/03/09 04:30:10;;;;;;;7.35;4.18;;;11.50;72.60;;;;;;5032285;28;20099;-62
2022/03/09 04:32:36;;;;;;;6.32;3.55;;;11.50;75.20;;;;;;5032527;28;20124;-61
2022/03/09 04:35:03;;;;;;;6.03;3.80;;;11.40;75.30;;;;;;5015949;28;20106;-62
2022/03/09 04:37:30;;;;;;;7.68;4.03;;;;;;;;;;5033968;28;20049;-61
2022/03/09 04:40:00;;;;;;;6.50;3.70;;;11.60;75.20;;;;;;5033374;28;20050;-61
2022/03/09 04:42:26;;;;;;;6.95;3.92;;;11.50;75.30;;;;;;5031620;28;20045;-62
2022/03/09 04:44:53;;;;;;;6.65;3.95;;;11.40;75.20;;;;;;5033424;28;20072;-61
2022/03/09 04:47:19;;;;;;;7.63;4.22;;;11.30;75.10;;;;;;5033574;28;20099;-62
2022/03/09 04:49:45;;;;;;;8.13;4.30;;;11.10;75.00;;;;;;5033216;28;20403;-61
2022/03/09 04:52:10;;;;;;;7.53;4.25;;;11.50;75.20;;;;;;5033161;28;20050;-61
2022/03/09 04:54:36;;;;;;;7.55;4.43;;;11.60;72.70;;;;;;5033230;28;20053;-61
2022/03/09 04:57:02;;;;;;;8.00;4.10;;;11.40;75.20;;;;;;5032226;28;20484;-61
2022/03/09 04:59:28;;;;;;;7.93;4.22;;;11.10;75.00;;;;;;5028824;28;20093;-61
2022/03/09 05:01:54;;;;;;;6.80;3.70;;;11.50;75.10;;;;;;5013721;28;20040;-62
2022/03/09 05:04:19;;;;;;;8.25;3.95;;;11.40;75.10;;;;;;5012120;28;20054;-63
2022/03/09 05:06:45;;;;;;;6.82;3.97;;;11.40;72.60;;;;;;5013756;28;20053;-61
2022/03/09 05:09:11;;;;;;;8.23;3.78;;;11.30;75.10;;;;;;5028839;28;20053;-62
2022/03/09 05:11:36;;;;;;;6.72;4.00;;;11.20;75.10;;;;;;5013632;28;20111;-61
2022/03/09 05:14:02;;;;;;;8.52;4.22;;;11.50;72.50;;;;;;5012189;28;20476;-62
2022/03/09 05:16:28;;;;;;;9.00;4.50;;;11.50;75.10;;;;;;5014035;28;20042;-62
2022/03/09 05:18:54;;;;;;;7.53;4.07;;;;;;;;;;5012270;28;20041;-61
2022/03/09 05:21:20;;;;;;;6.70;3.92;;;;;;;;;;5013590;28;20384;-62
2022/03/09 05:23:46;;;;;;;7.97;4.20;;;;;;;;;;5013564;28;20472;-63
2022/03/09 05:26:13;;;;;;;7.38;3.95;;;;;;;;;;5023168;28;20142;-61
2022/03/09 05:28:38;;;;;;;7.63;4.35;;;11.30;74.90;;;;;;5037043;28;20045;-61
2022/03/09 05:31:04;;;;;;;7.95;4.40;;;11.10;72.30;;;;;;5035526;28;20116;-64
2022/03/09 05:33:30;;;;;;;7.88;4.55;;;11.40;75.00;;;;;;5031941;28;20050;-64
2022/03/09 05:35:56;;;;;;;7.53;4.28;;;11.40;75.10;;;;;;5016667;28;20061;-64
2022/03/09 05:38:22;;;;;;;6.47;3.78;;;11.10;75.00;;;;;;5017159;28;20108;-62
2022/03/09 05:40:48;;;;;;;6.90;4.20;;;;;;;;;;5021461;28;20064;-62
2022/03/09 05:43:13;;;;;;;7.55;3.90;;;11.30;74.90;;;;;;5036835;28;20441;-61
2022/03/09 05:45:39;;;;;;;8.93;4.82;;;11.30;75.00;;;;;;5036327;28;20045;-62
2022/03/09 05:48:05;;;;;;;8.27;4.70;;;11.40;75.20;;;;;;5035223;28;20403;-63
2022/03/09 05:50:31;;;;;;;8.73;4.78;;;11.10;74.40;;;;;;5030243;28;20133;-62
2022/03/09 05:52:57;;;;;;;6.00;3.55;;;11.30;75.30;;;;;;5033375;28;20045;-62
2022/03/09 05:55:22;;;;;;;6.75;3.92;;;11.40;75.30;;;;;;5036234;28;20076;-62
2022/03/09 05:57:48;;;;;;;8.02;4.35;;;11.30;75.20;;;;;;5036349;28;20072;-61
2022/03/09 06:00:15;;;;;;;7.30;4.28;;;11.30;75.20;;;;;;5036192;28;20053;-62
2022/03/09 06:02:41;;;;;;;7.30;4.60;;;11.30;75.30;;;;;;5035601;28;20120;-62
2022/03/09 06:05:07;;;;;;;8.73;4.45;;;11.10;75.20;;;;;;5036448;28;20132;-62
2022/03/09 06:07:33;;;;;;;8.70;4.80;;;11.10;72.50;;;;;;5029665;28;20422;-62
2022/03/09 06:09:59;;;;;;;7.50;4.63;;;11.30;75.10;;;;;;5016263;28;20046;-63
2022/03/09 06:12:25;;;;;;;7.10;4.28;;;11.30;75.10;;;;;;5017625;28;20041;-62
2022/03/09 06:14:50;;;;;;;9.27;4.00;;;11.20;75.60;;;;;;5034530;28;20163;-61
2022/03/09 06:17:16;;;;;;;8.30;4.22;;;11.50;75.20;;;;;;5018129;28;20140;-62
2022/03/09 06:19:42;;;;;;;7.00;4.40;;;11.20;75.30;;;;;;5034640;28;20081;-61
2022/03/09 06:22:08;;;;;;;7.05;4.55;;;;;;;;;;5036118;28;20112;-62
2022/03/09 06:24:34;;;;;;;8.07;4.72;;;11.20;74.90;;;;;;5030012;28;20058;-62
2022/03/09 06:27:00;;;;;;;8.70;4.75;;;11.50;75.00;;;;;;5051147;28;20116;-62
2022/03/09 06:29:26;;;;;;;7.47;4.43;;;11.70;75.00;;;;;;5055573;28;20045;-62
2022/03/09 06:31:52;;;;;;;8.07;4.40;;;11.60;75.00;;;;;;5055330;28;20055;-62
2022/03/09 06:34:18;;;;;;;8.45;4.47;;;11.40;74.60;;;;;;5049615;28;20042;-62
2022/03/09 06:36:44;;;;;;;11.40;4.60;;;11.80;74.70;;;;;;5035361;28;20058;-62
2022/03/09 06:39:14;;;;;;;8.88;4.55;;;11.40;74.40;;;;;;5035542;28;20045;-62
2022/03/09 06:41:44;;;;;;;8.40;4.95;;;12.00;74.70;;;;;;5028946;28;20049;-61
2022/03/09 06:44:10;;;;;;;6.95;4.35;;;;;;;;;;5014231;28;20049;-62
2022/03/09 06:46:36;;;;;;;8.20;4.60;;;11.90;74.30;;;;;;5033910;28;20045;-62
2022/03/09 06:49:02;;;;;;;7.88;4.30;;;11.90;74.30;;;;;;5035621;28;20046;-61
2022/03/09 06:51:28;;;;;;;7.65;4.38;;;12.30;74.70;;;;;;5034071;28;20057;-62
2022/03/09 06:53:54;;;;;;;7.75;4.53;;;12.40;74.40;;;;;;5035759;28;20048;-63
2022/03/09 06:56:19;;;;;;;7.72;4.43;;;12.40;74.10;;;;;;5033466;28;20399;-62
2022/03/09 06:58:45;;;;;;;9.18;4.93;;;12.10;73.70;;;;;;5027972;28;20103;-62
2022/03/09 07:01:12;;;;;;;9.32;4.22;;;12.80;73.90;;;;;;5015583;28;20049;-62
2022/03/09 07:03:37;;;;;;;6.97;4.20;;;12.90;73.80;;;;;;5030867;28;20042;-62
2022/03/09 07:06:05;;;;;;;7.13;3.88;;;12.80;73.60;;;;;;5033364;28;20041;-62
2022/03/09 07:08:33;;;;;;;6.70;4.18;;;13.00;73.50;;;;;;5034543;28;20041;-62
2022/03/09 07:10:59;;;;;;;7.47;4.57;;;13.00;73.40;;;;;;5033705;28;20091;-62
2022/03/09 07:13:26;;;;;;;7.40;4.20;;;13.20;73.30;;;;;;5033563;28;20045;-62
2022/03/09 07:15:52;;;;;;;7.03;4.40;;;13.30;70.60;;;;;;5027037;28;20104;-61
2022/03/09 07:18:18;;;;;;;8.10;4.82;;;;;;;;;;5025680;28;20116;-62
2022/03/09 07:20:44;;;;;;;7.28;4.60;;;13.50;73.00;;;;;;5013918;28;20084;-62
2022/03/09 07:23:09;;;;;;;7.43;4.45;;;13.60;72.80;;;;;;5015202;28;20050;-62
2022/03/09 07:25:35;;;;;;;6.82;4.18;;;13.40;72.50;;;;;;5009253;28;20045;-62
2022/03/09 07:28:01;;;;;;;8.18;4.85;;;13.80;69.80;;;;;;5042731;28;20045;-64
2022/03/09 07:30:27;;;;;;;7.10;4.53;;;13.60;72.40;;;;;;5015022;28;20060;-63
2022/03/09 07:32:53;;;;;;;9.98;4.80;;;14.00;70.90;;;;;;5025711;28;20125;-64
2022/03/09 07:35:19;;;;;;;8.35;4.60;;;14.00;72.40;;;;;;5014432;28;20050;-62
2022/03/09 07:37:45;;;;;;;7.25;4.35;;;14.20;72.40;;;;;;5014957;28;20393;-62
2022/03/09 07:40:11;;;;;;;7.63;4.78;;;14.30;72.30;;;;;;5026008;28;20063;-64
2022/03/09 07:42:36;;;;;;;10.63;4.80;;;14.30;72.30;;;;;;5019574;28;20507;-64
2022/03/09 07:45:06;;;;;;;7.68;4.18;;;14.50;72.40;;;;;;5014073;28;20116;-64
2022/03/09 07:47:33;;;;;;;7.22;4.60;;;14.90;72.30;;;;;;5006655;28;20179;-63
2022/03/09 07:49:59;;;;;;;7.82;4.40;;;14.70;72.10;;;;;;5029701;28;20403;-63
2022/03/09 07:52:25;;;;;;;7.13;4.15;;;14.60;71.90;;;;;;5033495;28;20040;-63
2022/03/09 07:54:51;;;;;;;6.40;3.95;;;14.90;71.80;;;;;;5026895;28;20048;-61
2022/03/09 07:57:17;;;;;;;8.57;4.70;;;;;;;;;;5031008;28;20041;-62
2022/03/09 07:59:42;;;;;;;7.60;4.53;;;15.10;71.70;;;;;;5032112;28;20103;-63
2022/03/09 08:02:08;;;;;;;6.82;4.13;;;15.30;71.80;;;;;;5032909;28;20072;-63
2022/03/09 08:04:34;;;;;;;7.13;4.30;;;15.30;71.70;;;;;;5029718;28;20054;-61
2022/03/09 08:07:00;;;;;;;7.53;4.35;;;15.30;71.60;;;;;;5031746;28;20120;-63
2022/03/09 08:09:26;;;;;;;6.88;4.68;;;15.40;71.90;;;;;;5033780;28;20567;-63
2022/03/09 08:11:52;;;;;;;7.75;4.55;;;15.30;71.60;;;;;;5032130;28;20052;-62
2022/03/09 08:14:18;;;;;;;7.32;4.50;;;15.80;71.80;;;;;;5032090;28;20048;-61
2022/03/09 08:16:43;;;;;;;6.30;3.75;;;15.70;72.10;;;;;;5033727;28;20168;-62
2022/03/09 08:19:09;;;;;;;7.45;4.47;;;15.60;71.40;;;;;;5030180;28;20131;-63
2022/03/09 08:21:35;;;;;;;7.40;4.10;;;15.70;71.50;;;;;;5031430;28;20056;-62
2022/03/09 08:24:01;;;;;;;8.00;3.70;;;15.90;71.50;;;;;;5030524;28;20042;-62
2022/03/09 08:26:26;;;;;;;7.65;4.30;;;16.10;71.60;;;;;;5031535;28;20045;-63
2022/03/09 08:28:52;;;;;;;8.65;4.30;;;16.00;68.90;;;;;;5031179;28;20041;-62
2022/03/09 08:31:18;;;;;;;6.97;4.18;;;16.00;71.40;;;;;;5033490;28;20088;-63
2022/03/09 08:33:44;;;;;;;7.18;3.80;;;16.10;71.40;;;;;;5032161;28;20038;-62
2022/03/09 08:36:12;;;;;;;7.95;4.30;;;16.10;71.40;;;;;;5032138;28;20545;-62
2022/03/09 08:38:38;;;;;;;8.13;4.43;;;16.40;71.50;;;;;;5033607;28;20049;-62
2022/03/09 08:41:04;;;;;;;7.15;4.07;;;16.20;70.30;;;;;;5031106;28;20076;-62
2022/03/09 08:43:30;;;;;;;7.93;4.30;;;16.20;71.30;;;;;;5033524;28;20045;-61
2022/03/09 08:45:56;;;;;;;8.30;4.85;;;16.30;71.20;;;;;;5029779;28;20110;-64
2022/03/09 08:48:26;;;;;;;6.90;4.72;;;16.30;71.20;;;;;;5033616;28;20383;-64
2022/03/09 08:50:53;;;;;;;8.07;4.32;;;16.40;71.20;;;;;;5029770;28;20128;-63
2022/03/09 08:53:19;;;;;;;11.57;4.85;;;16.50;69.80;;;;;;5030893;28;20072;-63
2022/03/09 08:55:45;;;;;;;9.73;4.53;;;16.60;70.80;;;;;;5032675;28;20093;-65
2022/03/09 08:58:11;;;;;;;8.73;4.57;;;16.40;70.60;;;;;;5028736;28;20123;-64
2022/03/09 09:00:36;;;;;;;8.70;4.63;;;16.10;67.70;;;;;;5033374;28;20621;-64
2022/03/09 09:03:02;;;;;;;10.95;4.75;;;16.50;70.70;;;;;;5034970;28;20037;-65
2022/03/09 09:05:28;;;;;;;9.80;5.15;;;16.30;67.50;;;;;;5036469;28;20042;-62
2022/03/09 09:07:54;;;;;;;9.00;4.47;;;16.40;70.30;;;;;;5037133;28;20460;-66
2022/03/09 09:10:20;;;;;;;8.52;4.88;;;16.60;70.30;;;;;;5037075;28;20133;-66
2022/03/09 09:12:46;;;;;;;7.22;4.38;;;16.40;67.30;;;;;;5037169;28;20057;-66
2022/03/09 09:15:12;;;;;;;10.43;4.50;;;16.40;70.10;;;;;;5033397;28;20147;-62
2022/03/09 09:17:38;;;;;;;8.98;4.20;;;16.60;67.20;;;;;;5037314;28;20040;-63
2022/03/09 09:20:04;;;;;;;8.05;4.95;;;16.50;70.00;;;;;;5035759;28;20403;-62
2022/03/09 09:22:30;;;;;;;8.07;4.72;;;16.40;69.80;;;;;;5037736;28;20365;-67
2022/03/09 09:24:56;;;;;;;8.02;4.57;;;16.60;69.90;;;;;;5036438;28;20129;-63
2022/03/09 09:27:22;;;;;;;8.45;4.82;;;16.60;69.80;;;;;;5036767;28;20483;-62
2022/03/09 09:29:48;;;;;;;7.85;4.60;;;16.30;69.60;;;;;;5035316;28;20103;-62
2022/03/09 09:32:16;;;;;;;11.40;5.30;;;16.30;69.40;;;;;;5025502;28;20399;-66
2022/03/09 09:34:42;;;;;;;7.63;4.72;;;16.30;69.20;;;;;;5016817;28;20137;-62
2022/03/09 09:37:08;;;;;;;10.95;5.03;;;16.40;69.40;;;;;;5030740;28;20060;-66
2022/03/09 09:39:34;;;;;;;11.57;4.80;;;16.30;69.40;;;;;;5036255;28;20120;-66
2022/03/09 09:42:00;;;;;;;9.52;4.75;;;16.30;69.30;;;;;;5035615;28;20053;-61
2022/03/09 09:44:26;;;;;;;6.85;4.60;;;16.30;69.30;;;;;;5016890;28;20057;-61
2022/03/09 09:46:53;;;;;;;8.85;5.20;;;16.40;69.10;;;;;;5035305;28;20045;-62
2022/03/09 09:49:24;;;;;;;8.73;4.97;;;16.10;69.00;;;;;;5030481;28;20548;-64
2022/03/09 09:51:50;;;;;;;7.15;4.30;;;15.90;69.00;;;;;;5036049;28;20083;-61
2022/03/09 09:54:16;;;;;;;8.07;4.60;;;16.00;69.00;;;;;;5029259;28;20052;-65
2022/03/09 09:56:42;;;;;;;6.45;4.47;;;16.30;69.20;;;;;;5020420;28;20049;-64
2022/03/09 09:59:08;;;;;;;7.30;4.75;;;16.20;69.20;;;;;;5034802;28;20049;-64
2022/03/09 10:01:37;;;;;;;8.05;5.45;;;;;;;;;;5036533;28;20428;-65
2022/03/09 10:04:07;;;;;;;13.40;7.63;;;;;;;;;;5034018;28;20052;-67
2022/03/09 10:06:33;;;;;;;15.85;6.97;;;16.10;68.50;;;;;;5034857;28;20049;-65
2022/03/09 10:09:05;;;;;;;13.70;6.45;;;16.00;64.60;;;;;;5035424;28;20135;-67
2022/03/09 10:11:51;;;;;;;11.55;5.97;;;16.30;69.00;;;;;;5035929;28;20064;-64
2022/03/09 10:14:18;;;;;;;12.88;6.10;;;16.00;68.90;;;;;;5033996;28;20495;-65
2022/03/09 10:17:30;;;;;;;11.13;6.53;;;16.10;69.10;;;;;;5051609;28;20398;-65
2022/03/09 10:19:58;;;;;;;10.93;6.47;;;16.10;69.20;;;;;;4942546;28;20054;-65
2022/03/09 10:22:34;;;;;;;10.43;5.70;;;16.30;69.30;;;;;;4974688;28;20051;-65
2022/03/09 10:25:10;;;;;;;10.50;5.80;;;16.10;69.30;;;;;;4958897;28;20047;-65
2022/03/09 10:27:38;;;;;;;11.68;6.15;;;16.00;69.40;;;;;;4974984;28;20059;-65
2022/03/09 10:30:06;;;;;;;9.50;5.63;;;16.10;69.40;;;;;;4958288;28;20073;-65
2022/03/09 10:32:49;;;;;;;9.10;5.47;;;16.10;69.30;;;;;;4974828;28;20046;-65
2022/03/09 10:35:17;;;;;;;10.48;5.00;;;16.30;69.40;;;;;;4974676;28;20069;-65
2022/03/09 10:37:46;;;;;;;10.30;6.00;;;16.10;66.50;;;;;;4974187;28;20056;-65
2022/03/09 10:40:14;;;;;;;9.55;5.80;;;16.30;69.50;;;;;;4972827;28;20519;-65
2022/03/09 10:42:40;;;;;;;8.45;5.65;;;16.10;69.50;;;;;;4975447;28;20162;-65
2022/03/09 10:45:07;;;;;;;8.10;5.05;;;16.10;69.50;;;;;;4958291;28;20047;-65
2022/03/09 10:47:33;;;;;;;10.05;5.80;;;16.30;69.60;;;;;;4974696;28;20058;-65
2022/03/09 10:50:12;;;;;;;8.82;5.60;;;16.00;65.20;;;;;;4958337;28;20066;-65
2022/03/09 10:52:44;;;;;;;9.63;5.95;;;16.30;69.60;;;;;;4975777;28;20038;-66
2022/03/09 10:55:22;;;;;;;8.80;4.70;;;16.30;69.60;;;;;;5015679;28;20041;-65
2022/03/09 10:57:49;;;;;;;7.55;4.68;;;16.30;69.50;;;;;;5015872;28;20049;-65
2022/03/09 11:00:15;;;;;;;9.50;5.75;;;16.40;69.60;;;;;;5015613;28;20050;-65
2022/03/09 11:02:51;;;;;;;8.38;5.55;;;16.50;69.70;;;;;;5046249;28;20038;-65
2022/03/09 11:05:22;;;;;;;8.10;5.13;;;16.30;69.60;;;;;;5033772;28;20059;-65
2022/03/09 11:07:48;;;;;;;8.75;5.18;;;16.60;69.80;;;;;;5035292;28;20045;-66
2022/03/09 11:10:14;;;;;;;9.40;5.32;;;16.20;69.70;;;;;;5034118;28;20401;-63
2022/03/09 11:12:40;;;;;;;9.80;5.18;;;16.40;66.90;;;;;;5034357;28;20180;-65
2022/03/09 11:15:07;;;;;;;8.45;5.25;;;16.40;69.60;;;;;;5016523;28;20551;-65
2022/03/09 11:17:33;;;;;;;8.13;5.32;;;16.50;66.80;;;;;;5030684;28;20050;-65
2022/03/09 11:19:59;;;;;;;10.73;5.25;;;16.50;69.50;;;;;;5013696;28;20492;-65
2022/03/09 11:22:25;;;;;;;9.27;5.60;;;16.80;69.60;;;;;;5016295;28;20042;-65
2022/03/09 11:24:52;;;;;;;9.68;5.40;;;16.50;66.60;;;;;;5031111;28;20056;-65
2022/03/09 11:27:18;;;;;;;17.27;6.18;;;16.80;69.40;;;;;;5033171;28;20120;-67
2022/03/09 11:29:44;;;;;;;10.93;6.13;;;16.90;69.00;;;;;;5034872;28;20180;-65
2022/03/09 11:32:14;;;;;;;10.45;5.43;;;16.80;68.70;;;;;;5015022;28;20045;-65
2022/03/09 11:34:41;;;;;;;9.80;6.03;;;16.80;68.40;;;;;;5027526;28;20045;-65
2022/03/09 11:37:16;;;;;;;15.18;6.63;;;16.70;68.20;;;;;;5014428;28;20411;-65
2022/03/09 11:39:44;;;;;;;11.90;6.25;;;16.90;68.10;;;;;;5013681;28;20050;-65
2022/03/09 11:42:28;;;;;;;14.02;6.07;;;17.00;68.00;;;;;;5014893;28;20113;-65
2022/03/09 11:45:13;;;;;;;11.77;6.50;;;16.90;65.10;;;;;;5031325;28;20045;-65
2022/03/09 11:47:59;;;;;;;12.95;6.05;;;16.80;64.70;;;;;;5015335;28;20519;-65
2022/03/09 11:50:25;;;;;;;9.32;5.78;;;;;;;;;;5029181;28;20081;-65
2022/03/09 11:52:59;;;;;;;8.98;5.97;;;17.30;67.50;;;;;;5014683;28;20046;-66
2022/03/09 11:55:25;;;;;;;11.25;6.28;;;17.10;67.40;;;;;;5023094;28;20096;-65
2022/03/09 11:57:51;;;;;;;8.77;5.47;;;17.00;67.10;;;;;;5034046;28;20517;-64
2022/03/09 12:00:18;;;;;;;11.30;6.55;;;17.20;64.20;;;;;;5033502;28;20041;-66
2022/03/09 12:02:45;;;;;;;12.80;6.38;;;17.30;66.90;;;;;;5034332;28;20048;-66
2022/03/09 12:05:31;;;;;;;12.75;6.55;;;17.20;67.00;;;;;;5023906;28;20057;-66
2022/03/09 12:08:06;;;;;;;8.20;6.15;;;17.20;66.90;;;;;;5014456;28;20087;-64
2022/03/09 12:10:52;;;;;;;8.45;5.88;;;17.10;62.40;;;;;;5020859;28;20427;-65
2022/03/09 12:13:42;;;;;;;11.63;5.82;;;17.40;64.00;;;;;;5033124;28;20542;-66
2022/03/09 12:16:15;;;;;;;11.00;6.00;;;17.20;66.50;;;;;;5016915;28;20042;-65
2022/03/09 12:18:48;;;;;;;11.63;6.55;;;17.00;63.20;;;;;;5034014;28;20080;-65
2022/03/09 12:21:40;;;;;;;9.70;6.32;;;17.30;66.30;;;;;;5031211;28;20052;-65
2022/03/09 12:24:06;;;;;;;9.55;5.88;;;17.10;66.20;;;;;;5013643;28;20041;-65
2022/03/09 12:26:42;;;;;;;8.77;6.43;;;17.30;66.40;;;;;;5033544;28;20045;-65
2022/03/09 12:29:29;;;;;;;9.27;5.97;;;17.40;62.00;;;;;;5017709;28;20095;-66
2022/03/09 12:32:01;;;;;;;9.95;6.07;;;17.50;62.00;;;;;;5024773;28;20048;-65
2022/03/09 12:34:35;;;;;;;9.30;6.20;;;17.20;66.30;;;;;;5033428;28;20056;-65
2022/03/09 12:37:01;;;;;;;10.13;6.43;;;;;;;;;;5032859;28;20491;-64
2022/03/09 12:39:27;;;;;;;9.73;5.63;;;17.40;66.10;;;;;;5020904;28;20385;-64
2022/03/09 12:41:54;;;;;;;9.27;6.20;;;17.50;62.50;;;;;;5037790;28;20396;-65
2022/03/09 12:44:22;;;;;;;8.40;5.78;;;17.60;65.90;;;;;;5027556;28;20127;-65
2022/03/09 12:46:50;;;;;;;8.50;5.50;;;17.60;65.90;;;;;;5032208;28;20061;-65
2022/03/09 12:49:17;;;;;;;10.80;6.20;;;17.70;65.90;;;;;;5032930;28;20479;-62
2022/03/09 12:51:53;;;;;;;10.68;5.50;;;17.60;61.10;;;;;;5032634;28;20133;-67
2022/03/09 12:54:41;;;;;;;14.10;6.07;;;17.60;65.60;;;;;;5046459;28;20045;-65
2022/03/09 12:57:12;;;;;;;17.30;6.60;;;17.50;65.40;;;;;;5031031;28;20407;-64
2022/03/09 12:59:39;;;;;;;11.32;6.05;;;17.70;65.40;;;;;;5015716;28;20053;-65